Terminal Aerodrome Forecast
Issued by NWS

Home | Current Version | Previous Version | Text Only | Print | Product List | Glossary On
Versions: 1 2 3 4 5 6 7 8 9 10 11 12 13 14 15 16 17 18 19 20 21 22 23 24
000
FTUS43 KDTX 202300
TAFPTK
TAF
KPTK 202320Z 2100/2124 22015KT 6SM -SHRA BKN035 OVC080
      TEMPO 2100/2101 3SM +TSRA BKN028CB OVC050
     FM210200 22006KT P6SM BKN035 OVC050
     FM210800 22005KT 3SM BR BKN006 OVC030
     FM211400 29009KT 5SM BR BKN015 OVC030
     FM211700 32012KT P6SM BKN028 BKN060 PROB30 2117/2120 3SM TSRA
      OVC025CB=

USA.gov is the U.S. government's official web portal to all federal, state and local government web resources and services.